PRIVATE WETTERSTATION BILLIGHEIM-ALLFELD                       ZURCK
Wetterdaten: Dienstag, 17.05.2022
Datum Zeit Temp. A. Temp. A. min Temp. A. max Feuchte A. Luftdruck Regen Wind Richtung Richtung Sonnenschein ET Solar Taupunkt Windchill Windben Empfang
17.05.2022 00:00 16,4 C 16,4 C 16,4 C 84 % 1019,1 hPa 0,0 l/m 0,0 km/h (0 Bft) N 0 0 min 0,025 mm 0 W/m 13,7 C 16,4 C 0,0 km/h (0 Bft) 100 %
17.05.2022 00:10 16,3 C 16,3 C 16,4 C 85 % 1019,1 hPa 0,0 l/m 0,0 km/h (0 Bft) N 0 0 min 0,000 mm 0 W/m 13,8 C 16,3 C 0,0 km/h (0 Bft) 100 %
17.05.2022 00:20 16,2 C 16,2 C 16,3 C 85 % 1019,0 hPa 0,0 l/m 0,0 km/h (0 Bft) W 270 0 min 0,000 mm 0 W/m 13,7 C 16,2 C 1,6 km/h (1 Bft) 100 %
17.05.2022 00:30 16,1 C 16,1 C 16,2 C 86 % 1019,1 hPa 0,0 l/m 0,0 km/h (0 Bft) N 0 0 min 0,000 mm 0 W/m 13,8 C 16,1 C 0,0 km/h (0 Bft) 100 %
17.05.2022 00:40 16,0 C 16,0 C 16,1 C 86 % 1019,1 hPa 0,0 l/m 0,0 km/h (0 Bft) N 0 0 min 0,000 mm 0 W/m 13,7 C 16,0 C 0,0 km/h (0 Bft) 100 %
17.05.2022 00:50 15,9 C 15,9 C 16,0 C 86 % 1019,0 hPa 0,0 l/m 0,0 km/h (0 Bft) N 0 0 min 0,000 mm 0 W/m 13,6 C 15,9 C 0,0 km/h (0 Bft) 100 %
17.05.2022 01:00 15,7 C 15,7 C 15,9 C 87 % 1019,0 hPa 0,0 l/m 0,0 km/h (0 Bft) N 0 0 min 0,000 mm 0 W/m 13,5 C 15,7 C 0,0 km/h (0 Bft) 100 %
17.05.2022 01:10 15,5 C 15,5 C 15,7 C 87 % 1019,0 hPa 0,0 l/m 0,0 km/h (0 Bft) N 0 0 min 0,000 mm 0 W/m 13,3 C 15,5 C 0,0 km/h (0 Bft) 100 %
17.05.2022 01:20 15,3 C 15,3 C 15,5 C 88 % 1019,1 hPa 0,0 l/m 0,0 km/h (0 Bft) N 0 0 min 0,000 mm 0 W/m 13,3 C 15,3 C 0,0 km/h (0 Bft) 100 %
17.05.2022 01:30 15,1 C 15,1 C 15,3 C 88 % 1019,2 hPa 0,0 l/m 0,0 km/h (0 Bft) N 0 0 min 0,000 mm 0 W/m 13,1 C 15,1 C 0,0 km/h (0 Bft) 100 %
17.05.2022 01:40 15,1 C 15,1 C 15,1 C 89 % 1019,2 hPa 0,0 l/m 0,0 km/h (0 Bft) N 0 0 min 0,000 mm 0 W/m 13,3 C 15,1 C 0,0 km/h (0 Bft) 100 %
17.05.2022 01:50 15,1 C 15,1 C 15,1 C 89 % 1019,3 hPa 0,0 l/m 0,0 km/h (0 Bft) N 0 0 min 0,000 mm 0 W/m 13,3 C 15,1 C 0,0 km/h (0 Bft) 100 %
17.05.2022 02:00 15,0 C 15,0 C 15,1 C 89 % 1019,2 hPa 0,0 l/m 0,0 km/h (0 Bft) N 0 0 min 0,000 mm 0 W/m 13,2 C 15,0 C 0,0 km/h (0 Bft) 100 %
17.05.2022 02:10 14,9 C 14,9 C 15,0 C 90 % 1019,3 hPa 0,0 l/m 0,0 km/h (0 Bft) N 0 0 min 0,000 mm 0 W/m 13,3 C 14,9 C 0,0 km/h (0 Bft) 100 %
17.05.2022 02:20 14,7 C 14,7 C 14,9 C 89 % 1019,4 hPa 0,0 l/m 0,0 km/h (0 Bft) N 0 0 min 0,000 mm 0 W/m 12,9 C 14,7 C 0,0 km/h (0 Bft) 100 %
17.05.2022 02:30 14,2 C 14,2 C 14,7 C 89 % 1019,3 hPa 0,0 l/m 0,0 km/h (0 Bft) N 0 0 min 0,000 mm 0 W/m 12,4 C 14,2 C 0,0 km/h (0 Bft) 100 %
17.05.2022 02:40 13,9 C 13,9 C 14,2 C 90 % 1019,3 hPa 0,0 l/m 0,0 km/h (0 Bft) N 0 0 min 0,000 mm 0 W/m 12,3 C 13,9 C 0,0 km/h (0 Bft) 100 %
17.05.2022 02:50 13,7 C 13,7 C 13,9 C 90 % 1019,3 hPa 0,0 l/m 0,0 km/h (0 Bft) N 0 0 min 0,000 mm 0 W/m 12,1 C 13,7 C 0,0 km/h (0 Bft) 100 %
17.05.2022 03:00 13,4 C 13,4 C 13,7 C 90 % 1019,3 hPa 0,0 l/m 0,0 km/h (0 Bft) N 0 0 min 0,000 mm 0 W/m 11,8 C 13,4 C 0,0 km/h (0 Bft) 100 %
17.05.2022 03:10 13,3 C 13,3 C 13,4 C 90 % 1019,2 hPa 0,0 l/m 0,0 km/h (0 Bft) N 0 0 min 0,000 mm 0 W/m 11,7 C 13,3 C 0,0 km/h (0 Bft) 100 %
17.05.2022 03:20 13,2 C 13,2 C 13,3 C 90 % 1019,3 hPa 0,0 l/m 0,0 km/h (0 Bft) N 0 0 min 0,000 mm 0 W/m 11,6 C 13,2 C 0,0 km/h (0 Bft) 100 %
17.05.2022 03:30 13,1 C 13,1 C 13,2 C 90 % 1019,3 hPa 0,0 l/m 0,0 km/h (0 Bft) N 0 0 min 0,000 mm 0 W/m 11,5 C 13,1 C 0,0 km/h (0 Bft) 100 %
17.05.2022 03:40 12,9 C 12,9 C 13,1 C 90 % 1019,2 hPa 0,0 l/m 0,0 km/h (0 Bft) N 0 0 min 0,000 mm 0 W/m 11,3 C 12,9 C 0,0 km/h (0 Bft) 100 %
17.05.2022 03:50 12,7 C 12,7 C 12,9 C 91 % 1019,3 hPa 0,0 l/m 0,0 km/h (0 Bft) N 0 0 min 0,000 mm 0 W/m 11,3 C 12,7 C 0,0 km/h (0 Bft) 100 %
17.05.2022 04:00 12,4 C 12,4 C 12,7 C 90 % 1019,4 hPa 0,0 l/m 0,0 km/h (0 Bft) N 0 0 min 0,000 mm 0 W/m 10,8 C 12,4 C 0,0 km/h (0 Bft) 100 %
17.05.2022 04:10 12,2 C 12,2 C 12,4 C 91 % 1019,3 hPa 0,0 l/m 0,0 km/h (0 Bft) N 0 0 min 0,000 mm 0 W/m 10,8 C 12,2 C 0,0 km/h (0 Bft) 100 %
17.05.2022 04:20 12,1 C 12,1 C 12,3 C 90 % 1019,4 hPa 0,0 l/m 0,0 km/h (0 Bft) N 0 0 min 0,000 mm 0 W/m 10,5 C 12,1 C 0,0 km/h (0 Bft) 100 %
17.05.2022 04:30 11,9 C 11,9 C 12,1 C 91 % 1019,3 hPa 0,0 l/m 0,0 km/h (0 Bft) N 0 0 min 0,000 mm 0 W/m 10,5 C 11,9 C 0,0 km/h (0 Bft) 100 %
17.05.2022 04:40 11,9 C 11,9 C 11,9 C 91 % 1019,4 hPa 0,0 l/m 0,0 km/h (0 Bft) N 0 0 min 0,000 mm 0 W/m 10,5 C 11,9 C 0,0 km/h (0 Bft) 100 %
17.05.2022 04:50 11,8 C 11,8 C 11,9 C 91 % 1019,5 hPa 0,0 l/m 0,0 km/h (0 Bft) N 0 0 min 0,000 mm 0 W/m 10,4 C 11,8 C 0,0 km/h (0 Bft) 100 %
17.05.2022 05:00 11,7 C 11,7 C 11,8 C 90 % 1019,7 hPa 0,0 l/m 0,0 km/h (0 Bft) N 0 0 min 0,000 mm 0 W/m 10,1 C 11,7 C 0,0 km/h (0 Bft) 100 %
17.05.2022 05:10 11,6 C 11,6 C 11,7 C 90 % 1019,7 hPa 0,0 l/m 0,0 km/h (0 Bft) N 0 0 min 0,000 mm 0 W/m 10,0 C 11,6 C 0,0 km/h (0 Bft) 100 %
17.05.2022 05:20 11,5 C 11,5 C 11,6 C 91 % 1019,7 hPa 0,0 l/m 0,0 km/h (0 Bft) N 0 0 min 0,000 mm 0 W/m 10,1 C 11,5 C 0,0 km/h (0 Bft) 100 %
17.05.2022 05:30 11,4 C 11,4 C 11,5 C 91 % 1019,8 hPa 0,0 l/m 0,0 km/h (0 Bft) N 0 0 min 0,000 mm 0 W/m 10,0 C 11,4 C 0,0 km/h (0 Bft) 100 %
17.05.2022 05:40 11,3 C 11,3 C 11,4 C 90 % 1019,8 hPa 0,0 l/m 0,0 km/h (0 Bft) N 0 0 min 0,000 mm 0 W/m 9,7 C 11,3 C 0,0 km/h (0 Bft) 100 %
17.05.2022 05:50 11,2 C 11,2 C 11,3 C 91 % 1019,8 hPa 0,0 l/m 0,0 km/h (0 Bft) N 0 0 min 0,000 mm 5 W/m 9,8 C 11,2 C 0,0 km/h (0 Bft) 100 %
17.05.2022 06:00 11,1 C 11,1 C 11,2 C 91 % 1019,9 hPa 0,0 l/m 0,0 km/h (0 Bft) N 0 0 min 0,000 mm 9 W/m 9,7 C 11,1 C 0,0 km/h (0 Bft) 100 %
17.05.2022 06:10 10,9 C 10,9 C 11,1 C 90 % 1019,9 hPa 0,0 l/m 0,0 km/h (0 Bft) N 0 0 min 0,000 mm 12 W/m 9,3 C 10,9 C 0,0 km/h (0 Bft) 99 %
17.05.2022 06:20 10,8 C 10,8 C 10,9 C 90 % 1020,0 hPa 0,0 l/m 0,0 km/h (0 Bft) N 0 0 min 0,000 mm 16 W/m 9,2 C 10,8 C 0,0 km/h (0 Bft) 100 %
17.05.2022 06:30 10,7 C 10,7 C 10,8 C 91 % 1020,1 hPa 0,0 l/m 0,0 km/h (0 Bft) N 0 0 min 0,000 mm 18 W/m 9,3 C 10,7 C 0,0 km/h (0 Bft) 100 %
17.05.2022 06:40 10,7 C 10,7 C 10,7 C 94 % 1020,2 hPa 0,0 l/m 0,0 km/h (0 Bft) N 0 0 min 0,000 mm 21 W/m 9,8 C 10,7 C 0,0 km/h (0 Bft) 100 %
17.05.2022 06:50 10,7 C 10,6 C 10,7 C 91 % 1020,2 hPa 0,0 l/m 0,0 km/h (0 Bft) N 0 0 min 0,000 mm 23 W/m 9,3 C 10,7 C 0,0 km/h (0 Bft) 100 %
17.05.2022 07:00 10,7 C 10,6 C 10,7 C 91 % 1020,3 hPa 0,0 l/m 0,0 km/h (0 Bft) N 0 0 min 0,000 mm 25 W/m 9,3 C 10,7 C 0,0 km/h (0 Bft) 100 %
17.05.2022 07:10 10,7 C 10,7 C 10,7 C 91 % 1020,4 hPa 0,0 l/m 0,0 km/h (0 Bft) N 0 0 min 0,000 mm 26 W/m 9,3 C 10,7 C 0,0 km/h (0 Bft) 100 %
17.05.2022 07:20 10,8 C 10,7 C 10,8 C 90 % 1020,4 hPa 0,0 l/m 0,0 km/h (0 Bft) N 0 0 min 0,000 mm 30 W/m 9,2 C 10,8 C 0,0 km/h (0 Bft) 90 %
17.05.2022 07:30 11,1 C 10,8 C 11,1 C 90 % 1020,4 hPa 0,0 l/m 0,0 km/h (0 Bft) N 0 0 min 0,000 mm 33 W/m 9,5 C 11,1 C 0,0 km/h (0 Bft) 100 %
17.05.2022 07:40 11,5 C 11,2 C 11,5 C 90 % 1020,5 hPa 0,0 l/m 0,0 km/h (0 Bft) N 0 0 min 0,000 mm 39 W/m 9,9 C 11,5 C 0,0 km/h (0 Bft) 100 %
17.05.2022 07:50 11,9 C 11,5 C 11,9 C 90 % 1020,5 hPa 0,0 l/m 0,0 km/h (0 Bft) N 0 0 min 0,000 mm 40 W/m 10,3 C 11,9 C 0,0 km/h (0 Bft) 100 %
17.05.2022 08:00 12,7 C 11,9 C 12,7 C 90 % 1020,5 hPa 0,0 l/m 0,0 km/h (0 Bft) N 0 0 min 0,025 mm 56 W/m 11,1 C 12,7 C 0,0 km/h (0 Bft) 99 %
17.05.2022 08:10 13,5 C 12,7 C 13,5 C 90 % 1020,7 hPa 0,0 l/m 0,0 km/h (0 Bft) SW 225 0 min 0,000 mm 70 W/m 11,9 C 13,5 C 1,6 km/h (1 Bft) 100 %
17.05.2022 08:20 14,0 C 13,5 C 14,0 C 90 % 1020,7 hPa 0,0 l/m 0,0 km/h (0 Bft) N 0 10 min 0,000 mm 213 W/m 12,4 C 14,0 C 0,0 km/h (0 Bft) 100 %
17.05.2022 08:30 14,6 C 14,0 C 14,6 C 90 % 1020,6 hPa 0,0 l/m 0,0 km/h (0 Bft) SW 225 10 min 0,000 mm 380 W/m 13,0 C 14,6 C 1,6 km/h (1 Bft) 99 %
17.05.2022 08:40 15,4 C 14,6 C 15,4 C 91 % 1020,6 hPa 0,0 l/m 0,0 km/h (0 Bft) S-SW 202 10 min 0,000 mm 417 W/m 13,9 C 15,4 C 1,6 km/h (1 Bft) 98 %
17.05.2022 08:50 16,1 C 15,4 C 16,1 C 90 % 1020,7 hPa 0,0 l/m 0,0 km/h (0 Bft) S-SW 202 10 min 0,000 mm 418 W/m 14,5 C 16,1 C 4,8 km/h (1 Bft) 97 %
17.05.2022 09:00 16,4 C 16,1 C 16,4 C 89 % 1020,7 hPa 0,0 l/m 1,6 km/h (1 Bft) S-SW 202 10 min 0,152 mm 441 W/m 14,6 C 16,4 C 9,7 km/h (2 Bft) 98 %
17.05.2022 09:10 17,0 C 16,4 C 17,0 C 87 % 1020,8 hPa 0,0 l/m 0,0 km/h (0 Bft) S-SW 202 10 min 0,000 mm 520 W/m 14,8 C 17,0 C 8,0 km/h (2 Bft) 97 %
17.05.2022 09:20 17,5 C 17,0 C 17,5 C 85 % 1020,9 hPa 0,0 l/m 0,0 km/h (0 Bft) S-SW 202 10 min 0,000 mm 559 W/m 14,9 C 17,5 C 6,4 km/h (2 Bft) 98 %
17.05.2022 09:30 17,9 C 17,5 C 17,9 C 84 % 1020,8 hPa 0,0 l/m 0,0 km/h (0 Bft) S-SW 202 10 min 0,000 mm 577 W/m 15,2 C 17,9 C 1,6 km/h (1 Bft) 97 %
17.05.2022 09:40 18,6 C 17,9 C 18,6 C 83 % 1020,6 hPa 0,0 l/m 0,0 km/h (0 Bft) N 0 10 min 0,000 mm 631 W/m 15,7 C 18,6 C 0,0 km/h (0 Bft) 97 %
17.05.2022 09:50 18,9 C 18,6 C 18,9 C 77 % 1020,7 hPa 0,0 l/m 0,0 km/h (0 Bft) S-SW 202 10 min 0,000 mm 649 W/m 14,8 C 18,9 C 1,6 km/h (1 Bft) 98 %
17.05.2022 10:00 19,3 C 18,9 C 19,3 C 75 % 1020,6 hPa 0,0 l/m 0,0 km/h (0 Bft) N 0 10 min 0,305 mm 666 W/m 14,8 C 19,3 C 0,0 km/h (0 Bft) 97 %
17.05.2022 10:10 19,9 C 19,3 C 19,9 C 72 % 1020,6 hPa 0,0 l/m 0,0 km/h (0 Bft) SW 225 10 min 0,000 mm 679 W/m 14,7 C 19,9 C 1,6 km/h (1 Bft) 98 %
17.05.2022 10:20 20,5 C 19,9 C 20,5 C 66 % 1020,6 hPa 0,0 l/m 0,0 km/h (0 Bft) SW 225 10 min 0,000 mm 719 W/m 13,9 C 20,5 C 1,6 km/h (1 Bft) 96 %
17.05.2022 10:30 20,8 C 20,5 C 20,8 C 65 % 1020,6 hPa 0,0 l/m 0,0 km/h (0 Bft) W-SW 247 10 min 0,000 mm 740 W/m 14,0 C 20,8 C 1,6 km/h (1 Bft) 98 %
17.05.2022 10:40 21,6 C 20,8 C 21,6 C 63 % 1020,6 hPa 0,0 l/m 0,0 km/h (0 Bft) N 0 10 min 0,000 mm 747 W/m 14,2 C 21,6 C 0,0 km/h (0 Bft) 98 %
17.05.2022 10:50 21,9 C 21,6 C 21,9 C 63 % 1020,7 hPa 0,0 l/m 0,0 km/h (0 Bft) W-NW 292 10 min 0,000 mm 765 W/m 14,5 C 21,9 C 1,6 km/h (1 Bft) 96 %
17.05.2022 11:00 22,2 C 21,9 C 22,2 C 62 % 1020,5 hPa 0,0 l/m 0,0 km/h (0 Bft) N 360 10 min 0,406 mm 777 W/m 14,6 C 22,2 C 1,6 km/h (1 Bft) 98 %
17.05.2022 11:10 22,4 C 22,2 C 22,4 C 59 % 1020,5 hPa 0,0 l/m 0,0 km/h (0 Bft) NW 315 10 min 0,000 mm 770 W/m 14,0 C 22,4 C 1,6 km/h (1 Bft) 97 %
17.05.2022 11:20 22,8 C 22,4 C 22,8 C 60 % 1020,5 hPa 0,0 l/m 0,0 km/h (0 Bft) W-NW 292 10 min 0,000 mm 786 W/m 14,6 C 22,8 C 1,6 km/h (1 Bft) 99 %
17.05.2022 11:30 23,2 C 22,8 C 23,2 C 59 % 1020,5 hPa 0,0 l/m 0,0 km/h (0 Bft) W 270 10 min 0,000 mm 782 W/m 14,7 C 23,2 C 1,6 km/h (1 Bft) 97 %
17.05.2022 11:40 23,5 C 23,2 C 23,5 C 61 % 1020,5 hPa 0,0 l/m 0,0 km/h (0 Bft) SW 225 10 min 0,000 mm 840 W/m 15,5 C 23,5 C 6,4 km/h (2 Bft) 99 %
17.05.2022 11:50 23,4 C 23,4 C 23,6 C 60 % 1020,6 hPa 0,0 l/m 1,6 km/h (1 Bft) SW 225 10 min 0,000 mm 837 W/m 15,2 C 23,4 C 11,3 km/h (2 Bft) 100 %
17.05.2022 12:00 23,1 C 23,1 C 23,4 C 60 % 1020,5 hPa 0,0 l/m 0,0 km/h (0 Bft) W-SW 247 10 min 0,457 mm 898 W/m 14,9 C 23,1 C 8,0 km/h (2 Bft) 100 %
17.05.2022 12:10 23,4 C 23,1 C 23,4 C 55 % 1020,5 hPa 0,0 l/m 0,0 km/h (0 Bft) W-NW 292 10 min 0,000 mm 835 W/m 13,8 C 23,4 C 3,2 km/h (1 Bft) 100 %
17.05.2022 12:20 23,6 C 23,4 C 23,6 C 57 % 1020,4 hPa 0,0 l/m 0,0 km/h (0 Bft) W-NW 292 10 min 0,000 mm 847 W/m 14,6 C 23,6 C 1,6 km/h (1 Bft) 100 %
17.05.2022 12:40 23,8 C 23,4 C 23,8 C 55 % 1020,4 hPa 0,0 l/m 0,1 km/h (0 Bft) S 179 20 min 0,000 mm 292 W/m 14,2 C 23,8 C 4,8 km/h (1 Bft) 100 %
17.05.2022 12:50 23,7 C 23,7 C 23,8 C 56 % 1020,3 hPa 0,0 l/m 0,6 km/h (0 Bft) S 190 10 min 0,000 mm 877 W/m 14,4 C 23,7 C 11,3 km/h (2 Bft) 100 %
17.05.2022 13:00 23,7 C 23,7 C 23,8 C 56 % 1020,1 hPa 0,0 l/m 1,4 km/h (1 Bft) S-SW 193 10 min 0,484 mm 882 W/m 14,4 C 23,7 C 11,3 km/h (2 Bft) 100 %
17.05.2022 13:10 23,6 C 23,6 C 23,7 C 56 % 1020,0 hPa 0,0 l/m 0,0 km/h (0 Bft) S-SO 162 10 min 0,000 mm 823 W/m 14,3 C 23,6 C 1,6 km/h (1 Bft) 100 %
17.05.2022 13:20 24,1 C 23,6 C 24,1 C 55 % 1019,9 hPa 0,0 l/m 0,9 km/h (0 Bft) W-SW 244 10 min 0,000 mm 944 W/m 14,5 C 24,1 C 6,4 km/h (2 Bft) 100 %
17.05.2022 13:30 24,1 C 24,1 C 24,2 C 55 % 1019,9 hPa 0,0 l/m 0,6 km/h (0 Bft) S-SO 156 10 min 0,000 mm 933 W/m 14,5 C 24,1 C 8,0 km/h (2 Bft) 100 %
17.05.2022 13:40 24,4 C 24,1 C 24,4 C 56 % 1019,8 hPa 0,0 l/m 0,4 km/h (0 Bft) W-SW 255 10 min 0,000 mm 995 W/m 15,0 C 24,4 C 8,0 km/h (2 Bft) 100 %
17.05.2022 13:50 24,6 C 24,4 C 24,6 C 56 % 1019,8 hPa 0,0 l/m 0,5 km/h (0 Bft) O-SO 123 10 min 0,000 mm 459 W/m 15,2 C 24,6 C 8,0 km/h (2 Bft) 100 %
17.05.2022 14:00 23,8 C 23,8 C 24,6 C 54 % 1019,6 hPa 0,0 l/m 1,4 km/h (1 Bft) O 98 10 min 0,483 mm 369 W/m 13,9 C 23,8 C 11,3 km/h (2 Bft) 100 %
17.05.2022 14:10 23,4 C 23,4 C 23,8 C 56 % 1019,6 hPa 0,0 l/m 0,0 km/h (0 Bft) O-SO 104 10 min 0,000 mm 325 W/m 14,1 C 23,4 C 0,0 km/h (0 Bft) 99 %
17.05.2022 14:20 24,2 C 23,4 C 24,2 C 55 % 1019,5 hPa 0,0 l/m 0,2 km/h (0 Bft) N-NO 17 10 min 0,000 mm 933 W/m 14,6 C 24,2 C 6,4 km/h (2 Bft) 100 %
17.05.2022 14:30 24,2 C 24,2 C 24,4 C 54 % 1019,5 hPa 0,0 l/m 0,0 km/h (0 Bft) NO 40 10 min 0,000 mm 155 W/m 14,3 C 24,2 C 0,0 km/h (0 Bft) 100 %
17.05.2022 14:40 23,8 C 23,8 C 24,2 C 58 % 1019,3 hPa 0,0 l/m 0,0 km/h (0 Bft) NO 37 10 min 0,000 mm 267 W/m 15,0 C 23,8 C 0,0 km/h (0 Bft) 100 %
17.05.2022 14:50 23,8 C 23,6 C 23,8 C 58 % 1019,3 hPa 0,0 l/m 0,0 km/h (0 Bft) N-NW 342 10 min 0,000 mm 933 W/m 15,0 C 23,8 C 1,6 km/h (1 Bft) 100 %
17.05.2022 15:00 24,6 C 23,8 C 24,6 C 51 % 1019,2 hPa 0,0 l/m 0,4 km/h (0 Bft) W-NW 297 10 min 0,381 mm 988 W/m 13,8 C 24,6 C 6,4 km/h (2 Bft) 99 %
17.05.2022 15:10 24,6 C 24,6 C 24,7 C 52 % 1019,1 hPa 0,0 l/m 0,3 km/h (0 Bft) W-NW 302 0 min 0,000 mm 141 W/m 14,1 C 24,6 C 4,8 km/h (1 Bft) 100 %
17.05.2022 15:20 24,1 C 24,1 C 24,6 C 57 % 1019,1 hPa 0,0 l/m 0,2 km/h (0 Bft) W 275 0 min 0,000 mm 91 W/m 15,0 C 24,1 C 8,0 km/h (2 Bft) 100 %
17.05.2022 15:30 23,3 C 23,3 C 24,1 C 56 % 1019,0 hPa 0,0 l/m 0,0 km/h (0 Bft) W 275 0 min 0,000 mm 105 W/m 14,0 C 23,3 C 0,0 km/h (0 Bft) 100 %
17.05.2022 15:40 22,8 C 22,8 C 23,3 C 57 % 1019,1 hPa 0,0 l/m 0,0 km/h (0 Bft) W 275 0 min 0,000 mm 118 W/m 13,8 C 22,8 C 0,0 km/h (0 Bft) 100 %
17.05.2022 15:50 22,6 C 22,6 C 22,8 C 58 % 1019,0 hPa 0,0 l/m 0,0 km/h (0 Bft) W 275 0 min 0,000 mm 105 W/m 13,9 C 22,6 C 0,0 km/h (0 Bft) 100 %
17.05.2022 16:00 22,3 C 22,3 C 22,6 C 61 % 1018,9 hPa 0,0 l/m 0,0 km/h (0 Bft) W 275 0 min 0,101 mm 113 W/m 14,4 C 22,3 C 0,0 km/h (0 Bft) 100 %
17.05.2022 16:10 21,9 C 21,9 C 22,3 C 64 % 1018,8 hPa 0,0 l/m 0,0 km/h (0 Bft) W 275 0 min 0,000 mm 128 W/m 14,8 C 21,9 C 0,0 km/h (0 Bft) 100 %
17.05.2022 16:20 21,7 C 21,7 C 21,9 C 64 % 1018,7 hPa 0,0 l/m 0,0 km/h (0 Bft) W 275 0 min 0,000 mm 146 W/m 14,6 C 21,7 C 0,0 km/h (0 Bft) 100 %
17.05.2022 16:30 21,6 C 21,6 C 21,7 C 65 % 1018,8 hPa 0,0 l/m 0,0 km/h (0 Bft) W 275 0 min 0,000 mm 134 W/m 14,7 C 21,6 C 0,0 km/h (0 Bft) 100 %
17.05.2022 16:40 21,5 C 21,5 C 21,6 C 66 % 1018,8 hPa 0,0 l/m 0,0 km/h (0 Bft) W 275 0 min 0,000 mm 118 W/m 14,9 C 21,5 C 0,0 km/h (0 Bft) 100 %
17.05.2022 16:50 21,4 C 21,4 C 21,5 C 66 % 1018,7 hPa 0,0 l/m 0,0 km/h (0 Bft) W 275 0 min 0,000 mm 139 W/m 14,8 C 21,4 C 0,0 km/h (0 Bft) 100 %
17.05.2022 17:00 21,4 C 21,4 C 21,5 C 69 % 1018,6 hPa 0,0 l/m 0,0 km/h (0 Bft) W 275 10 min 0,077 mm 183 W/m 15,5 C 21,4 C 0,0 km/h (0 Bft) 100 %
17.05.2022 17:10 21,5 C 21,4 C 21,5 C 66 % 1018,5 hPa 0,0 l/m 0,0 km/h (0 Bft) W 275 10 min 0,000 mm 209 W/m 14,9 C 21,5 C 0,0 km/h (0 Bft) 100 %
17.05.2022 17:20 21,7 C 21,5 C 21,7 C 66 % 1018,5 hPa 0,0 l/m 0,0 km/h (0 Bft) W-NW 285 10 min 0,000 mm 483 W/m 15,1 C 21,7 C 1,6 km/h (1 Bft) 99 %
17.05.2022 17:30 22,8 C 21,7 C 22,8 C 60 % 1018,3 hPa 0,0 l/m 0,0 km/h (0 Bft) W-NW 298 10 min 0,000 mm 480 W/m 14,6 C 22,8 C 3,2 km/h (1 Bft) 100 %
17.05.2022 17:40 24,1 C 22,8 C 24,1 C 54 % 1018,2 hPa 0,0 l/m 0,0 km/h (0 Bft) W-NW 300 10 min 0,000 mm 450 W/m 14,2 C 24,1 C 1,6 km/h (1 Bft) 100 %
17.05.2022 17:50 24,8 C 24,1 C 24,8 C 50 % 1018,4 hPa 0,0 l/m 0,0 km/h (0 Bft) W-NW 300 10 min 0,000 mm 436 W/m 13,7 C 24,8 C 1,6 km/h (1 Bft) 100 %
17.05.2022 18:00 25,0 C 24,8 C 25,0 C 53 % 1018,4 hPa 0,0 l/m 0,0 km/h (0 Bft) W-NW 300 10 min 0,254 mm 371 W/m 14,7 C 25,0 C 0,0 km/h (0 Bft) 100 %
17.05.2022 18:10 24,8 C 24,8 C 25,0 C 49 % 1018,3 hPa 0,0 l/m 0,2 km/h (0 Bft) W-NW 300 10 min 0,000 mm 385 W/m 13,3 C 24,8 C 6,4 km/h (2 Bft) 99 %
17.05.2022 18:20 25,1 C 24,8 C 25,1 C 51 % 1018,3 hPa 0,0 l/m 0,0 km/h (0 Bft) W-NW 300 10 min 0,000 mm 357 W/m 14,2 C 25,1 C 0,0 km/h (0 Bft) 100 %
17.05.2022 18:30 25,1 C 25,1 C 25,2 C 53 % 1018,2 hPa 0,0 l/m 0,0 km/h (0 Bft) W-NW 300 0 min 0,000 mm 139 W/m 14,8 C 25,1 C 0,0 km/h (0 Bft) 100 %
17.05.2022 18:40 24,3 C 24,3 C 25,1 C 55 % 1018,2 hPa 0,0 l/m 0,0 km/h (0 Bft) W-NW 300 0 min 0,000 mm 100 W/m 14,7 C 24,3 C 0,0 km/h (0 Bft) 100 %
17.05.2022 18:50 23,6 C 23,6 C 24,3 C 56 % 1018,1 hPa 0,0 l/m 0,0 km/h (0 Bft) W-NW 300 0 min 0,000 mm 100 W/m 14,3 C 23,6 C 0,0 km/h (0 Bft) 100 %
17.05.2022 19:00 23,1 C 23,1 C 23,6 C 58 % 1018,0 hPa 0,0 l/m 0,0 km/h (0 Bft) W-NW 300 0 min 0,152 mm 111 W/m 14,4 C 23,1 C 0,0 km/h (0 Bft) 100 %
17.05.2022 19:10 22,9 C 22,9 C 23,1 C 59 % 1018,0 hPa 0,0 l/m 0,0 km/h (0 Bft) W-NW 300 0 min 0,000 mm 121 W/m 14,5 C 22,9 C 0,0 km/h (0 Bft) 100 %
17.05.2022 19:20 22,8 C 22,8 C 22,9 C 60 % 1018,0 hPa 0,0 l/m 0,0 km/h (0 Bft) W-NW 300 0 min 0,000 mm 70 W/m 14,6 C 22,8 C 0,0 km/h (0 Bft) 100 %
17.05.2022 19:30 22,5 C 22,5 C 22,8 C 60 % 1018,1 hPa 0,0 l/m 0,0 km/h (0 Bft) W-NW 300 0 min 0,000 mm 63 W/m 14,3 C 22,5 C 0,0 km/h (0 Bft) 100 %
17.05.2022 19:40 22,2 C 22,2 C 22,5 C 63 % 1018,2 hPa 0,0 l/m 0,0 km/h (0 Bft) W-NW 300 0 min 0,000 mm 51 W/m 14,8 C 22,2 C 0,0 km/h (0 Bft) 100 %
17.05.2022 19:50 21,9 C 21,9 C 22,2 C 63 % 1018,2 hPa 0,0 l/m 0,0 km/h (0 Bft) W-NW 300 0 min 0,000 mm 44 W/m 14,5 C 21,9 C 0,0 km/h (0 Bft) 100 %
17.05.2022 20:00 21,6 C 21,6 C 21,9 C 65 % 1018,3 hPa 0,0 l/m 0,0 km/h (0 Bft) W-NW 300 0 min 0,051 mm 42 W/m 14,7 C 21,6 C 0,0 km/h (0 Bft) 100 %
17.05.2022 20:10 21,2 C 21,2 C 21,6 C 65 % 1018,4 hPa 0,0 l/m 0,0 km/h (0 Bft) W-NW 300 0 min 0,000 mm 37 W/m 14,4 C 21,2 C 0,0 km/h (0 Bft) 100 %
17.05.2022 20:20 20,9 C 20,9 C 21,2 C 66 % 1018,3 hPa 0,0 l/m 0,0 km/h (0 Bft) W-NW 300 0 min 0,000 mm 28 W/m 14,3 C 20,9 C 0,0 km/h (0 Bft) 100 %
17.05.2022 20:30 20,7 C 20,7 C 20,9 C 63 % 1018,3 hPa 0,0 l/m 0,0 km/h (0 Bft) W-NW 300 0 min 0,000 mm 18 W/m 13,4 C 20,7 C 0,0 km/h (0 Bft) 100 %
17.05.2022 20:40 20,4 C 20,4 C 20,7 C 63 % 1018,4 hPa 0,0 l/m 0,0 km/h (0 Bft) W-NW 300 0 min 0,000 mm 12 W/m 13,1 C 20,4 C 0,0 km/h (0 Bft) 100 %
17.05.2022 20:50 20,1 C 20,1 C 20,4 C 64 % 1018,5 hPa 0,0 l/m 0,0 km/h (0 Bft) W-NW 300 0 min 0,000 mm 7 W/m 13,1 C 20,1 C 0,0 km/h (0 Bft) 100 %
17.05.2022 21:00 19,8 C 19,8 C 20,1 C 63 % 1018,5 hPa 0,0 l/m 0,0 km/h (0 Bft) W-NW 300 0 min 0,000 mm 5 W/m 12,5 C 19,8 C 0,0 km/h (0 Bft) 100 %
17.05.2022 21:10 19,5 C 19,5 C 19,8 C 64 % 1018,5 hPa 0,0 l/m 0,0 km/h (0 Bft) N 0 0 min 0,000 mm 0 W/m 12,5 C 19,5 C 0,0 km/h (0 Bft) 100 %
17.05.2022 21:20 19,2 C 19,2 C 19,5 C 67 % 1018,7 hPa 0,0 l/m 0,0 km/h (0 Bft) N 0 0 min 0,000 mm 0 W/m 12,9 C 19,2 C 0,0 km/h (0 Bft) 100 %
17.05.2022 21:30 19,1 C 19,1 C 19,2 C 68 % 1018,8 hPa 0,0 l/m 0,0 km/h (0 Bft) N 0 0 min 0,000 mm 0 W/m 13,1 C 19,1 C 0,0 km/h (0 Bft) 100 %
17.05.2022 21:40 18,9 C 18,9 C 19,1 C 69 % 1018,8 hPa 0,0 l/m 0,0 km/h (0 Bft) N 0 0 min 0,000 mm 0 W/m 13,1 C 18,9 C 0,0 km/h (0 Bft) 100 %
17.05.2022 21:50 18,8 C 18,8 C 18,9 C 70 % 1018,9 hPa 0,0 l/m 0,0 km/h (0 Bft) N 0 0 min 0,000 mm 0 W/m 13,2 C 18,8 C 0,0 km/h (0 Bft) 100 %
17.05.2022 22:00 18,6 C 18,6 C 18,8 C 71 % 1019,0 hPa 0,0 l/m 0,0 km/h (0 Bft) N 0 0 min 0,000 mm 0 W/m 13,2 C 18,6 C 0,0 km/h (0 Bft) 100 %
17.05.2022 22:10 18,3 C 18,3 C 18,6 C 73 % 1019,1 hPa 0,0 l/m 0,0 km/h (0 Bft) N 0 0 min 0,000 mm 0 W/m 13,4 C 18,3 C 0,0 km/h (0 Bft) 100 %
17.05.2022 22:20 17,7 C 17,7 C 18,3 C 75 % 1019,1 hPa 0,0 l/m 0,0 km/h (0 Bft) N 0 0 min 0,000 mm 0 W/m 13,2 C 17,7 C 0,0 km/h (0 Bft) 99 %
17.05.2022 22:30 17,1 C 17,1 C 17,6 C 77 % 1019,2 hPa 0,0 l/m 1,6 km/h (1 Bft) W-NW 292 0 min 0,000 mm 0 W/m 13,0 C 17,1 C 3,2 km/h (1 Bft) 100 %
17.05.2022 22:40 16,7 C 16,7 C 17,1 C 78 % 1019,1 hPa 0,0 l/m 1,6 km/h (1 Bft) W-NW 292 0 min 0,000 mm 0 W/m 12,8 C 16,7 C 4,8 km/h (1 Bft) 100 %
17.05.2022 22:50 16,3 C 16,3 C 16,7 C 79 % 1019,3 hPa 0,0 l/m 0,0 km/h (0 Bft) N 0 0 min 0,000 mm 0 W/m 12,6 C 16,3 C 0,0 km/h (0 Bft) 100 %
17.05.2022 23:00 16,0 C 16,0 C 16,3 C 81 % 1019,4 hPa 0,0 l/m 3,2 km/h (1 Bft) W-NW 292 0 min 0,025 mm 0 W/m 12,7 C 16,0 C 4,8 km/h (1 Bft) 100 %
17.05.2022 23:10 15,6 C 15,6 C 16,0 C 82 % 1019,3 hPa 0,0 l/m 1,6 km/h (1 Bft) W-NW 292 0 min 0,000 mm 0 W/m 12,5 C 15,6 C 3,2 km/h (1 Bft) 100 %
17.05.2022 23:20 15,3 C 15,3 C 15,6 C 82 % 1019,5 hPa 0,0 l/m 0,0 km/h (0 Bft) W-NW 292 0 min 0,000 mm 0 W/m 12,2 C 15,3 C 3,2 km/h (1 Bft) 100 %
17.05.2022 23:30 15,1 C 15,1 C 15,3 C 83 % 1019,5 hPa 0,0 l/m 3,2 km/h (1 Bft) NW 315 0 min 0,000 mm 0 W/m 12,2 C 15,1 C 4,8 km/h (1 Bft) 100 %
17.05.2022 23:40 15,1 C 15,0 C 15,1 C 84 % 1019,4 hPa 0,0 l/m 3,2 km/h (1 Bft) NW 315 0 min 0,000 mm 0 W/m 12,4 C 15,1 C 4,8 km/h (1 Bft) 100 %
17.05.2022 23:50 14,8 C 14,8 C 15,1 C 84 % 1019,4 hPa 0,0 l/m 1,6 km/h (1 Bft) NW 315 0 min 0,000 mm 0 W/m 12,1 C 14,8 C 3,2 km/h (1 Bft) 100 %
_ Min-Zeit 06:50 06:50 06:40 18:10 19:00 - 00:00 - - - - - 06:20 06:30 00:00 07:20
Minimum _ 10,6 C 10,6 C 10,7 C 49 % 1018,0 hPa - 0,0 km/h (0 Bft) - - - - - 9,2 C 10,7 C 0,0 km/h (0 Bft) 90 %
_ Max-Zeit 18:30 18:30 18:30 06:40 09:20 00:00 23:00 - - 12:40 13:00 13:40 09:40 18:20 11:50 00:20
Maximum _ 25,2 C 25,1 C 25,2 C 94 % 1020,9 hPa 0,0 l/m 3,2 km/h
W-NW (1 Bft)
- - 20 min 0,484 mm 995 W/m 15,7 C 25,1 C 11,3 km/h
SW (2 Bft)
100 %
Durchschnitt _ 18,3 C 18,1 C 18,4 C 74 % 1019,4 hPa #0,0 l/m 0,2 km/h (0 Bft) W-NW - #8:20 h #3,378 mm 360 W/m 13,1 C 18,3 C 1,6 km/h (1 Bft) 99 %
PRIVATE WETTERSTATION BILLIGHEIM-ALLFELD - www.neckar-odenwald-wetter.de - Holger Sonntag